sensor_id;sensor_type;location;lat;lon;timestamp;P1;durP1;ratioP1;P2;durP2;ratioP2
45970;SDS011;31681;48.982;8.394;2023-05-07T00:01:25;3.33;;;2.97;;
45970;SDS011;31681;48.982;8.394;2023-05-07T00:03:51;5.13;;;3.55;;
45970;SDS011;31681;48.982;8.394;2023-05-07T00:06:16;4.53;;;3.08;;
45970;SDS011;31681;48.982;8.394;2023-05-07T00:08:42;3.85;;;3.30;;
45970;SDS011;31681;48.982;8.394;2023-05-07T00:11:07;3.75;;;2.92;;
45970;SDS011;31681;48.982;8.394;2023-05-07T00:13:33;6.13;;;3.25;;
45970;SDS011;31681;48.982;8.394;2023-05-07T00:16:01;5.40;;;2.72;;
45970;SDS011;31681;48.982;8.394;2023-05-07T00:18:26;3.85;;;3.17;;
45970;SDS011;31681;48.982;8.394;2023-05-07T00:20:52;3.53;;;3.03;;
45970;SDS011;31681;48.982;8.394;2023-05-07T00:23:17;3.53;;;2.97;;
45970;SDS011;31681;48.982;8.394;2023-05-07T00:25:42;5.70;;;3.00;;
45970;SDS011;31681;48.982;8.394;2023-05-07T00:28:08;4.60;;;2.78;;
45970;SDS011;31681;48.982;8.394;2023-05-07T00:30:33;4.60;;;2.90;;
45970;SDS011;31681;48.982;8.394;2023-05-07T00:32:58;5.22;;;2.83;;
45970;SDS011;31681;48.982;8.394;2023-05-07T00:35:24;3.95;;;3.00;;
45970;SDS011;31681;48.982;8.394;2023-05-07T00:37:49;5.97;;;3.47;;
45970;SDS011;31681;48.982;8.394;2023-05-07T00:40:15;3.42;;;2.80;;
45970;SDS011;31681;48.982;8.394;2023-05-07T00:42:40;4.65;;;3.15;;
45970;SDS011;31681;48.982;8.394;2023-05-07T00:45:06;5.03;;;3.10;;
45970;SDS011;31681;48.982;8.394;2023-05-07T00:47:34;3.63;;;2.88;;
45970;SDS011;31681;48.982;8.394;2023-05-07T00:49:59;6.45;;;2.75;;
45970;SDS011;31681;48.982;8.394;2023-05-07T00:52:25;3.10;;;2.70;;
45970;SDS011;31681;48.982;8.394;2023-05-07T00:54:51;4.03;;;3.00;;
45970;SDS011;31681;48.982;8.394;2023-05-07T00:57:16;5.07;;;2.70;;
45970;SDS011;31681;48.982;8.394;2023-05-07T00:59:42;3.33;;;2.72;;
45970;SDS011;31681;48.982;8.394;2023-05-07T01:02:07;3.70;;;2.60;;
45970;SDS011;31681;48.982;8.394;2023-05-07T01:04:33;7.90;;;2.85;;
45970;SDS011;31681;48.982;8.394;2023-05-07T01:06:58;4.35;;;2.88;;
45970;SDS011;31681;48.982;8.394;2023-05-07T01:09:24;5.03;;;3.03;;
45970;SDS011;31681;48.982;8.394;2023-05-07T01:11:51;4.35;;;2.33;;
45970;SDS011;31681;48.982;8.394;2023-05-07T01:14:17;3.55;;;2.70;;
45970;SDS011;31681;48.982;8.394;2023-05-07T01:16:43;2.78;;;2.50;;
45970;SDS011;31681;48.982;8.394;2023-05-07T01:19:09;4.05;;;2.50;;
45970;SDS011;31681;48.982;8.394;2023-05-07T01:21:36;3.88;;;2.90;;
45970;SDS011;31681;48.982;8.394;2023-05-07T01:24:04;4.10;;;3.00;;
45970;SDS011;31681;48.982;8.394;2023-05-07T01:26:31;9.10;;;4.65;;
45970;SDS011;31681;48.982;8.394;2023-05-07T01:28:56;3.35;;;2.97;;
45970;SDS011;31681;48.982;8.394;2023-05-07T01:31:21;3.10;;;2.80;;
45970;SDS011;31681;48.982;8.394;2023-05-07T01:33:49;4.22;;;3.20;;
45970;SDS011;31681;48.982;8.394;2023-05-07T01:36:17;4.53;;;3.05;;
45970;SDS011;31681;48.982;8.394;2023-05-07T01:38:43;5.25;;;2.95;;
45970;SDS011;31681;48.982;8.394;2023-05-07T01:41:08;4.32;;;2.85;;
45970;SDS011;31681;48.982;8.394;2023-05-07T01:43:34;7.05;;;3.30;;
45970;SDS011;31681;48.982;8.394;2023-05-07T01:45:59;4.50;;;3.35;;
45970;SDS011;31681;48.982;8.394;2023-05-07T01:48:26;5.53;;;3.22;;
45970;SDS011;31681;48.982;8.394;2023-05-07T01:50:52;5.35;;;3.10;;
45970;SDS011;31681;48.982;8.394;2023-05-07T01:53:17;3.88;;;2.95;;
45970;SDS011;31681;48.982;8.394;2023-05-07T01:55:43;4.47;;;2.97;;
45970;SDS011;31681;48.982;8.394;2023-05-07T01:58:08;6.25;;;2.75;;
45970;SDS011;31681;48.982;8.394;2023-05-07T02:00:34;3.25;;;2.63;;
45970;SDS011;31681;48.982;8.394;2023-05-07T02:02:59;4.53;;;2.95;;
45970;SDS011;31681;48.982;8.394;2023-05-07T02:05:38;4.00;;;2.90;;
45970;SDS011;31681;48.982;8.394;2023-05-07T02:08:17;5.15;;;3.00;;
45970;SDS011;31681;48.982;8.394;2023-05-07T02:10:42;3.50;;;2.85;;
45970;SDS011;31681;48.982;8.394;2023-05-07T02:13:07;6.20;;;3.10;;
45970;SDS011;31681;48.982;8.394;2023-05-07T02:15:33;5.72;;;3.05;;
45970;SDS011;31681;48.982;8.394;2023-05-07T02:18:07;3.42;;;3.08;;
45970;SDS011;31681;48.982;8.394;2023-05-07T02:20:33;3.45;;;2.75;;
45970;SDS011;31681;48.982;8.394;2023-05-07T02:22:58;4.05;;;2.90;;
45970;SDS011;31681;48.982;8.394;2023-05-07T02:25:26;3.78;;;2.80;;
45970;SDS011;31681;48.982;8.394;2023-05-07T02:27:51;4.22;;;2.90;;
45970;SDS011;31681;48.982;8.394;2023-05-07T02:30:19;8.50;;;3.30;;
45970;SDS011;31681;48.982;8.394;2023-05-07T02:32:47;5.20;;;2.95;;
45970;SDS011;31681;48.982;8.394;2023-05-07T02:35:12;3.42;;;3.08;;
45970;SDS011;31681;48.982;8.394;2023-05-07T02:37:37;3.50;;;2.90;;
45970;SDS011;31681;48.982;8.394;2023-05-07T02:40:04;4.20;;;3.03;;
45970;SDS011;31681;48.982;8.394;2023-05-07T02:42:30;3.72;;;3.30;;
45970;SDS011;31681;48.982;8.394;2023-05-07T02:44:55;4.25;;;3.20;;
45970;SDS011;31681;48.982;8.394;2023-05-07T02:47:21;5.53;;;2.95;;
45970;SDS011;31681;48.982;8.394;2023-05-07T02:49:46;8.30;;;3.17;;
45970;SDS011;31681;48.982;8.394;2023-05-07T02:52:12;3.83;;;2.90;;
45970;SDS011;31681;48.982;8.394;2023-05-07T02:54:37;3.78;;;2.95;;
45970;SDS011;31681;48.982;8.394;2023-05-07T02:57:03;4.30;;;2.72;;
45970;SDS011;31681;48.982;8.394;2023-05-07T02:59:28;3.50;;;2.90;;
45970;SDS011;31681;48.982;8.394;2023-05-07T03:01:53;6.35;;;3.00;;
45970;SDS011;31681;48.982;8.394;2023-05-07T03:04:19;4.28;;;3.17;;
45970;SDS011;31681;48.982;8.394;2023-05-07T03:06:46;4.35;;;2.85;;
45970;SDS011;31681;48.982;8.394;2023-05-07T03:09:11;2.95;;;2.70;;
45970;SDS011;31681;48.982;8.394;2023-05-07T03:11:37;4.72;;;2.85;;
45970;SDS011;31681;48.982;8.394;2023-05-07T03:14:02;6.30;;;3.40;;
45970;SDS011;31681;48.982;8.394;2023-05-07T03:16:30;5.05;;;2.72;;
45970;SDS011;31681;48.982;8.394;2023-05-07T03:18:55;5.63;;;3.20;;
45970;SDS011;31681;48.982;8.394;2023-05-07T03:21:21;6.40;;;3.53;;
45970;SDS011;31681;48.982;8.394;2023-05-07T03:23:46;3.40;;;2.97;;
45970;SDS011;31681;48.982;8.394;2023-05-07T03:26:12;3.90;;;2.63;;
45970;SDS011;31681;48.982;8.394;2023-05-07T03:28:37;5.10;;;3.60;;
45970;SDS011;31681;48.982;8.394;2023-05-07T03:31:06;3.25;;;2.95;;
45970;SDS011;31681;48.982;8.394;2023-05-07T03:33:33;3.60;;;3.30;;
45970;SDS011;31681;48.982;8.394;2023-05-07T03:35:58;3.58;;;3.15;;
45970;SDS011;31681;48.982;8.394;2023-05-07T03:38:25;4.80;;;3.72;;
45970;SDS011;31681;48.982;8.394;2023-05-07T03:40:50;5.00;;;3.30;;
45970;SDS011;31681;48.982;8.394;2023-05-07T03:43:16;3.25;;;2.95;;
45970;SDS011;31681;48.982;8.394;2023-05-07T03:45:49;5.70;;;2.95;;
45970;SDS011;31681;48.982;8.394;2023-05-07T03:48:27;5.30;;;3.10;;
45970;SDS011;31681;48.982;8.394;2023-05-07T03:50:55;5.45;;;3.13;;
45970;SDS011;31681;48.982;8.394;2023-05-07T03:53:21;3.63;;;3.20;;
45970;SDS011;31681;48.982;8.394;2023-05-07T03:55:46;5.00;;;3.35;;
45970;SDS011;31681;48.982;8.394;2023-05-07T03:58:12;3.97;;;3.40;;
45970;SDS011;31681;48.982;8.394;2023-05-07T04:00:37;3.88;;;3.10;;
45970;SDS011;31681;48.982;8.394;2023-05-07T04:03:15;4.60;;;3.22;;
45970;SDS011;31681;48.982;8.394;2023-05-07T04:05:41;4.35;;;3.30;;
45970;SDS011;31681;48.982;8.394;2023-05-07T04:08:07;5.32;;;3.25;;
45970;SDS011;31681;48.982;8.394;2023-05-07T04:10:38;4.13;;;2.80;;
45970;SDS011;31681;48.982;8.394;2023-05-07T04:13:08;6.57;;;3.25;;
45970;SDS011;31681;48.982;8.394;2023-05-07T04:15:35;4.57;;;2.80;;
45970;SDS011;31681;48.982;8.394;2023-05-07T04:18:00;4.45;;;3.25;;
45970;SDS011;31681;48.982;8.394;2023-05-07T04:20:26;4.40;;;3.20;;
45970;SDS011;31681;48.982;8.394;2023-05-07T04:22:58;5.90;;;3.25;;
45970;SDS011;31681;48.982;8.394;2023-05-07T04:25:23;4.70;;;3.30;;
45970;SDS011;31681;48.982;8.394;2023-05-07T04:27:52;6.05;;;3.25;;
45970;SDS011;31681;48.982;8.394;2023-05-07T04:30:18;5.07;;;3.42;;
45970;SDS011;31681;48.982;8.394;2023-05-07T04:32:43;5.85;;;3.78;;
45970;SDS011;31681;48.982;8.394;2023-05-07T04:35:10;4.05;;;3.65;;
45970;SDS011;31681;48.982;8.394;2023-05-07T04:37:36;3.95;;;3.20;;
45970;SDS011;31681;48.982;8.394;2023-05-07T04:40:02;4.53;;;3.47;;
45970;SDS011;31681;48.982;8.394;2023-05-07T04:42:28;6.00;;;3.17;;
45970;SDS011;31681;48.982;8.394;2023-05-07T04:44:54;5.15;;;3.22;;
45970;SDS011;31681;48.982;8.394;2023-05-07T04:47:27;3.85;;;3.28;;
45970;SDS011;31681;48.982;8.394;2023-05-07T04:49:57;5.88;;;3.85;;
45970;SDS011;31681;48.982;8.394;2023-05-07T04:52:22;5.53;;;3.50;;
45970;SDS011;31681;48.982;8.394;2023-05-07T04:54:48;4.72;;;3.33;;
45970;SDS011;31681;48.982;8.394;2023-05-07T04:57:16;4.40;;;3.42;;
45970;SDS011;31681;48.982;8.394;2023-05-07T04:59:43;5.32;;;3.67;;
45970;SDS011;31681;48.982;8.394;2023-05-07T05:02:09;5.28;;;3.58;;
45970;SDS011;31681;48.982;8.394;2023-05-07T05:04:35;5.65;;;3.92;;
45970;SDS011;31681;48.982;8.394;2023-05-07T05:07:02;9.32;;;4.00;;
45970;SDS011;31681;48.982;8.394;2023-05-07T05:09:31;4.82;;;3.40;;
45970;SDS011;31681;48.982;8.394;2023-05-07T05:11:56;9.05;;;4.25;;
45970;SDS011;31681;48.982;8.394;2023-05-07T05:14:22;5.78;;;3.78;;
45970;SDS011;31681;48.982;8.394;2023-05-07T05:16:49;5.75;;;3.63;;
45970;SDS011;31681;48.982;8.394;2023-05-07T05:19:14;4.47;;;3.20;;
45970;SDS011;31681;48.982;8.394;2023-05-07T05:21:40;6.53;;;3.50;;
45970;SDS011;31681;48.982;8.394;2023-05-07T05:24:08;4.22;;;3.22;;
45970;SDS011;31681;48.982;8.394;2023-05-07T05:26:34;7.32;;;3.40;;
45970;SDS011;31681;48.982;8.394;2023-05-07T05:29:00;3.75;;;3.08;;
45970;SDS011;31681;48.982;8.394;2023-05-07T05:31:28;4.70;;;3.72;;
45970;SDS011;31681;48.982;8.394;2023-05-07T05:33:53;3.63;;;3.10;;
45970;SDS011;31681;48.982;8.394;2023-05-07T05:36:19;3.40;;;2.88;;
45970;SDS011;31681;48.982;8.394;2023-05-07T05:38:46;4.95;;;3.13;;
45970;SDS011;31681;48.982;8.394;2023-05-07T05:41:12;3.83;;;2.90;;
45970;SDS011;31681;48.982;8.394;2023-05-07T05:43:38;4.45;;;3.28;;
45970;SDS011;31681;48.982;8.394;2023-05-07T05:46:03;4.85;;;3.30;;
45970;SDS011;31681;48.982;8.394;2023-05-07T05:48:29;4.00;;;2.85;;
45970;SDS011;31681;48.982;8.394;2023-05-07T05:50:56;4.97;;;3.08;;
45970;SDS011;31681;48.982;8.394;2023-05-07T05:53:21;4.57;;;3.13;;
45970;SDS011;31681;48.982;8.394;2023-05-07T05:55:47;6.13;;;3.15;;
45970;SDS011;31681;48.982;8.394;2023-05-07T05:58:13;6.20;;;3.60;;
45970;SDS011;31681;48.982;8.394;2023-05-07T06:00:44;3.78;;;3.30;;
45970;SDS011;31681;48.982;8.394;2023-05-07T06:03:10;4.50;;;3.38;;
45970;SDS011;31681;48.982;8.394;2023-05-07T06:05:35;4.15;;;3.30;;
45970;SDS011;31681;48.982;8.394;2023-05-07T06:08:01;11.70;;;3.67;;
45970;SDS011;31681;48.982;8.394;2023-05-07T06:10:31;4.30;;;3.35;;
45970;SDS011;31681;48.982;8.394;2023-05-07T06:12:57;3.95;;;3.22;;
45970;SDS011;31681;48.982;8.394;2023-05-07T06:15:22;3.35;;;3.05;;
45970;SDS011;31681;48.982;8.394;2023-05-07T06:17:51;3.47;;;2.97;;
45970;SDS011;31681;48.982;8.394;2023-05-07T06:20:17;4.30;;;3.72;;
45970;SDS011;31681;48.982;8.394;2023-05-07T06:22:43;5.93;;;3.53;;
45970;SDS011;31681;48.982;8.394;2023-05-07T06:25:10;4.15;;;3.13;;
45970;SDS011;31681;48.982;8.394;2023-05-07T06:27:36;6.05;;;3.25;;
45970;SDS011;31681;48.982;8.394;2023-05-07T06:30:01;4.25;;;3.53;;
45970;SDS011;31681;48.982;8.394;2023-05-07T06:32:27;4.05;;;3.05;;
45970;SDS011;31681;48.982;8.394;2023-05-07T06:34:53;4.75;;;3.25;;
45970;SDS011;31681;48.982;8.394;2023-05-07T06:37:19;4.85;;;3.08;;
45970;SDS011;31681;48.982;8.394;2023-05-07T06:39:54;4.95;;;3.72;;
45970;SDS011;31681;48.982;8.394;2023-05-07T06:42:19;3.58;;;3.28;;
45970;SDS011;31681;48.982;8.394;2023-05-07T06:44:47;3.30;;;3.03;;
45970;SDS011;31681;48.982;8.394;2023-05-07T06:47:15;3.50;;;3.20;;
45970;SDS011;31681;48.982;8.394;2023-05-07T06:49:40;3.95;;;3.05;;
45970;SDS011;31681;48.982;8.394;2023-05-07T06:52:06;3.25;;;2.95;;
45970;SDS011;31681;48.982;8.394;2023-05-07T06:54:31;4.03;;;3.33;;
45970;SDS011;31681;48.982;8.394;2023-05-07T06:56:57;6.40;;;3.03;;
45970;SDS011;31681;48.982;8.394;2023-05-07T06:59:25;4.07;;;3.00;;
45970;SDS011;31681;48.982;8.394;2023-05-07T07:01:50;3.70;;;3.30;;
45970;SDS011;31681;48.982;8.394;2023-05-07T07:04:16;4.68;;;2.97;;
45970;SDS011;31681;48.982;8.394;2023-05-07T07:06:45;5.47;;;2.72;;
45970;SDS011;31681;48.982;8.394;2023-05-07T07:09:12;3.42;;;2.83;;
45970;SDS011;31681;48.982;8.394;2023-05-07T07:11:37;3.55;;;3.22;;
45970;SDS011;31681;48.982;8.394;2023-05-07T07:14:03;3.13;;;2.90;;
45970;SDS011;31681;48.982;8.394;2023-05-07T07:16:33;3.47;;;2.53;;
45970;SDS011;31681;48.982;8.394;2023-05-07T07:18:58;4.13;;;2.40;;
45970;SDS011;31681;48.982;8.394;2023-05-07T07:21:23;2.28;;;2.08;;
45970;SDS011;31681;48.982;8.394;2023-05-07T07:23:49;3.85;;;2.63;;
45970;SDS011;31681;48.982;8.394;2023-05-07T07:26:16;4.30;;;2.58;;
45970;SDS011;31681;48.982;8.394;2023-05-07T07:28:45;4.50;;;2.60;;
45970;SDS011;31681;48.982;8.394;2023-05-07T07:31:11;2.58;;;2.38;;
45970;SDS011;31681;48.982;8.394;2023-05-07T07:33:37;5.50;;;2.17;;
45970;SDS011;31681;48.982;8.394;2023-05-07T07:36:02;3.80;;;2.30;;
45970;SDS011;31681;48.982;8.394;2023-05-07T07:38:28;9.40;;;2.28;;
45970;SDS011;31681;48.982;8.394;2023-05-07T07:40:54;3.75;;;2.20;;
45970;SDS011;31681;48.982;8.394;2023-05-07T07:43:21;2.70;;;2.30;;
45970;SDS011;31681;48.982;8.394;2023-05-07T07:45:47;2.38;;;2.17;;
45970;SDS011;31681;48.982;8.394;2023-05-07T07:48:14;2.70;;;2.50;;
45970;SDS011;31681;48.982;8.394;2023-05-07T07:50:39;3.95;;;2.63;;
45970;SDS011;31681;48.982;8.394;2023-05-07T07:53:06;3.03;;;2.53;;
45970;SDS011;31681;48.982;8.394;2023-05-07T07:55:31;3.60;;;2.47;;
45970;SDS011;31681;48.982;8.394;2023-05-07T07:57:59;5.63;;;2.90;;
45970;SDS011;31681;48.982;8.394;2023-05-07T08:00:24;3.15;;;2.30;;
45970;SDS011;31681;48.982;8.394;2023-05-07T08:02:53;2.60;;;2.40;;
45970;SDS011;31681;48.982;8.394;2023-05-07T08:05:24;3.03;;;2.47;;
45970;SDS011;31681;48.982;8.394;2023-05-07T08:07:51;3.70;;;2.30;;
45970;SDS011;31681;48.982;8.394;2023-05-07T08:10:18;3.80;;;2.30;;
45970;SDS011;31681;48.982;8.394;2023-05-07T08:12:48;4.97;;;2.63;;
45970;SDS011;31681;48.982;8.394;2023-05-07T08:15:14;4.10;;;2.42;;
45970;SDS011;31681;48.982;8.394;2023-05-07T08:17:40;3.13;;;2.10;;
45970;SDS011;31681;48.982;8.394;2023-05-07T08:20:06;4.53;;;2.33;;
45970;SDS011;31681;48.982;8.394;2023-05-07T08:22:31;4.18;;;2.70;;
45970;SDS011;31681;48.982;8.394;2023-05-07T08:24:57;3.20;;;2.58;;
45970;SDS011;31681;48.982;8.394;2023-05-07T08:27:22;3.90;;;2.30;;
45970;SDS011;31681;48.982;8.394;2023-05-07T08:29:48;6.47;;;2.90;;
45970;SDS011;31681;48.982;8.394;2023-05-07T08:32:16;3.08;;;2.65;;
45970;SDS011;31681;48.982;8.394;2023-05-07T08:34:41;7.57;;;3.00;;
45970;SDS011;31681;48.982;8.394;2023-05-07T08:37:10;2.53;;;2.33;;
45970;SDS011;31681;48.982;8.394;2023-05-07T08:39:36;3.83;;;2.80;;
45970;SDS011;31681;48.982;8.394;2023-05-07T08:42:04;2.75;;;2.42;;
45970;SDS011;31681;48.982;8.394;2023-05-07T08:51:08;3.22;;;2.92;;
45970;SDS011;31681;48.982;8.394;2023-05-07T08:54:08;3.10;;;2.80;;
45970;SDS011;31681;48.982;8.394;2023-05-07T08:56:34;4.10;;;3.03;;
45970;SDS011;31681;48.982;8.394;2023-05-07T08:58:59;4.65;;;2.92;;
45970;SDS011;31681;48.982;8.394;2023-05-07T09:01:27;4.68;;;2.88;;
45970;SDS011;31681;48.982;8.394;2023-05-07T09:04:12;5.47;;;2.97;;
45970;SDS011;31681;48.982;8.394;2023-05-07T09:06:47;3.65;;;2.90;;
45970;SDS011;31681;48.982;8.394;2023-05-07T09:09:14;7.07;;;3.10;;
45970;SDS011;31681;48.982;8.394;2023-05-07T09:11:42;5.90;;;3.17;;
45970;SDS011;31681;48.982;8.394;2023-05-07T09:14:08;3.47;;;3.13;;
45970;SDS011;31681;48.982;8.394;2023-05-07T09:16:39;3.78;;;3.03;;
45970;SDS011;31681;48.982;8.394;2023-05-07T09:22:06;7.05;;;3.17;;
45970;SDS011;31681;48.982;8.394;2023-05-07T09:24:47;3.75;;;2.95;;
45970;SDS011;31681;48.982;8.394;2023-05-07T09:27:13;4.70;;;2.88;;
45970;SDS011;31681;48.982;8.394;2023-05-07T09:29:39;4.03;;;2.72;;
45970;SDS011;31681;48.982;8.394;2023-05-07T09:32:05;3.97;;;3.00;;
45970;SDS011;31681;48.982;8.394;2023-05-07T09:34:31;4.57;;;2.95;;
45970;SDS011;31681;48.982;8.394;2023-05-07T09:36:58;3.90;;;2.70;;
45970;SDS011;31681;48.982;8.394;2023-05-07T09:39:24;7.10;;;3.20;;
45970;SDS011;31681;48.982;8.394;2023-05-07T09:41:58;6.25;;;2.72;;
45970;SDS011;31681;48.982;8.394;2023-05-07T09:44:31;4.53;;;2.95;;
45970;SDS011;31681;48.982;8.394;2023-05-07T09:46:58;3.08;;;2.60;;
45970;SDS011;31681;48.982;8.394;2023-05-07T09:49:33;3.15;;;2.53;;
45970;SDS011;31681;48.982;8.394;2023-05-07T09:52:04;3.47;;;3.00;;
45970;SDS011;31681;48.982;8.394;2023-05-07T09:54:34;4.90;;;2.90;;
45970;SDS011;31681;48.982;8.394;2023-05-07T09:57:04;3.13;;;2.83;;
45970;SDS011;31681;48.982;8.394;2023-05-07T09:59:31;5.32;;;3.42;;
45970;SDS011;31681;48.982;8.394;2023-05-07T10:01:59;4.60;;;2.80;;
45970;SDS011;31681;48.982;8.394;2023-05-07T10:04:26;4.65;;;3.17;;
45970;SDS011;31681;48.982;8.394;2023-05-07T10:06:52;3.78;;;2.70;;
45970;SDS011;31681;48.982;8.394;2023-05-07T10:09:19;3.42;;;2.80;;
45970;SDS011;31681;48.982;8.394;2023-05-07T10:11:44;2.95;;;2.70;;
45970;SDS011;31681;48.982;8.394;2023-05-07T10:14:10;2.58;;;2.38;;
45970;SDS011;31681;48.982;8.394;2023-05-07T10:16:36;4.60;;;2.50;;
45970;SDS011;31681;48.982;8.394;2023-05-07T10:19:05;2.83;;;2.47;;
45970;SDS011;31681;48.982;8.394;2023-05-07T10:21:33;3.00;;;2.70;;
45970;SDS011;31681;48.982;8.394;2023-05-07T10:24:04;2.80;;;2.50;;
45970;SDS011;31681;48.982;8.394;2023-05-07T10:26:36;3.58;;;2.75;;
45970;SDS011;31681;48.982;8.394;2023-05-07T10:29:07;4.82;;;3.40;;
45970;SDS011;31681;48.982;8.394;2023-05-07T10:34:20;2.83;;;2.63;;
45970;SDS011;31681;48.982;8.394;2023-05-07T10:36:46;4.38;;;2.75;;
45970;SDS011;31681;48.982;8.394;2023-05-07T10:39:13;2.78;;;2.47;;
45970;SDS011;31681;48.982;8.394;2023-05-07T10:41:39;3.15;;;2.40;;
45970;SDS011;31681;48.982;8.394;2023-05-07T10:44:05;5.53;;;2.50;;
45970;SDS011;31681;48.982;8.394;2023-05-07T10:46:32;3.65;;;2.40;;
45970;SDS011;31681;48.982;8.394;2023-05-07T10:49:08;3.45;;;2.58;;
45970;SDS011;31681;48.982;8.394;2023-05-07T10:52:11;3.97;;;3.00;;
45970;SDS011;31681;48.982;8.394;2023-05-07T10:54:37;4.00;;;2.53;;
45970;SDS011;31681;48.982;8.394;2023-05-07T10:59:52;2.75;;;2.45;;
45970;SDS011;31681;48.982;8.394;2023-05-07T11:06:08;4.68;;;2.55;;
45970;SDS011;31681;48.982;8.394;2023-05-07T11:11:18;3.78;;;2.55;;
45970;SDS011;31681;48.982;8.394;2023-05-07T11:13:51;3.42;;;2.28;;
45970;SDS011;31681;48.982;8.394;2023-05-07T11:16:30;2.60;;;2.40;;
45970;SDS011;31681;48.982;8.394;2023-05-07T11:19:08;2.97;;;2.22;;
45970;SDS011;31681;48.982;8.394;2023-05-07T11:21:46;3.50;;;2.63;;
45970;SDS011;31681;48.982;8.394;2023-05-07T11:24:38;2.97;;;2.50;;
45970;SDS011;31681;48.982;8.394;2023-05-07T11:27:05;3.80;;;2.33;;
45970;SDS011;31681;48.982;8.394;2023-05-07T11:29:31;4.32;;;2.30;;
45970;SDS011;31681;48.982;8.394;2023-05-07T11:32:07;2.63;;;2.08;;
45970;SDS011;31681;48.982;8.394;2023-05-07T11:34:55;2.90;;;2.45;;
45970;SDS011;31681;48.982;8.394;2023-05-07T11:37:22;3.33;;;2.10;;
45970;SDS011;31681;48.982;8.394;2023-05-07T11:42:34;2.70;;;2.50;;
45970;SDS011;31681;48.982;8.394;2023-05-07T11:47:31;2.60;;;2.40;;
45970;SDS011;31681;48.982;8.394;2023-05-07T11:49:56;2.60;;;2.40;;
45970;SDS011;31681;48.982;8.394;2023-05-07T11:52:24;4.35;;;2.50;;
45970;SDS011;31681;48.982;8.394;2023-05-07T11:55:00;2.60;;;2.40;;
45970;SDS011;31681;48.982;8.394;2023-05-07T11:57:26;3.45;;;2.70;;
45970;SDS011;31681;48.982;8.394;2023-05-07T12:02:39;3.35;;;2.17;;
45970;SDS011;31681;48.982;8.394;2023-05-07T12:05:05;4.32;;;2.83;;
45970;SDS011;31681;48.982;8.394;2023-05-07T12:07:30;3.78;;;2.75;;
45970;SDS011;31681;48.982;8.394;2023-05-07T12:09:58;2.67;;;2.47;;
45970;SDS011;31681;48.982;8.394;2023-05-07T12:12:23;4.30;;;2.83;;
45970;SDS011;31681;48.982;8.394;2023-05-07T12:14:49;3.13;;;2.80;;
45970;SDS011;31681;48.982;8.394;2023-05-07T12:17:14;3.15;;;2.38;;
45970;SDS011;31681;48.982;8.394;2023-05-07T12:19:45;4.00;;;2.20;;
45970;SDS011;31681;48.982;8.394;2023-05-07T12:22:11;2.83;;;2.53;;
45970;SDS011;31681;48.982;8.394;2023-05-07T12:24:47;3.20;;;2.67;;
45970;SDS011;31681;48.982;8.394;2023-05-07T12:27:13;3.38;;;2.50;;
45970;SDS011;31681;48.982;8.394;2023-05-07T12:29:39;5.68;;;2.63;;
45970;SDS011;31681;48.982;8.394;2023-05-07T12:32:12;2.63;;;2.42;;
45970;SDS011;31681;48.982;8.394;2023-05-07T12:34:38;3.22;;;2.78;;
45970;SDS011;31681;48.982;8.394;2023-05-07T12:37:04;4.70;;;2.75;;
45970;SDS011;31681;48.982;8.394;2023-05-07T12:39:30;3.17;;;2.83;;
45970;SDS011;31681;48.982;8.394;2023-05-07T12:41:56;9.88;;;6.47;;
45970;SDS011;31681;48.982;8.394;2023-05-07T12:44:23;4.07;;;3.20;;
45970;SDS011;31681;48.982;8.394;2023-05-07T12:46:49;2.58;;;2.28;;
45970;SDS011;31681;48.982;8.394;2023-05-07T12:49:15;3.42;;;2.55;;
45970;SDS011;31681;48.982;8.394;2023-05-07T12:51:40;8.10;;;3.67;;
45970;SDS011;31681;48.982;8.394;2023-05-07T12:54:06;2.95;;;2.30;;
45970;SDS011;31681;48.982;8.394;2023-05-07T12:56:31;2.90;;;2.13;;
45970;SDS011;31681;48.982;8.394;2023-05-07T12:58:57;3.63;;;2.50;;
45970;SDS011;31681;48.982;8.394;2023-05-07T13:01:28;4.65;;;2.33;;
45970;SDS011;31681;48.982;8.394;2023-05-07T13:03:53;2.92;;;2.65;;
45970;SDS011;31681;48.982;8.394;2023-05-07T13:06:19;3.47;;;2.60;;
45970;SDS011;31681;48.982;8.394;2023-05-07T13:09:13;3.80;;;3.00;;
45970;SDS011;31681;48.982;8.394;2023-05-07T13:11:38;3.25;;;2.80;;
45970;SDS011;31681;48.982;8.394;2023-05-07T13:14:04;4.47;;;2.38;;
45970;SDS011;31681;48.982;8.394;2023-05-07T13:16:29;3.05;;;2.70;;
45970;SDS011;31681;48.982;8.394;2023-05-07T13:18:55;3.60;;;3.15;;
45970;SDS011;31681;48.982;8.394;2023-05-07T13:21:20;4.00;;;2.88;;
45970;SDS011;31681;48.982;8.394;2023-05-07T13:23:45;3.50;;;2.65;;
45970;SDS011;31681;48.982;8.394;2023-05-07T13:26:11;4.60;;;2.75;;
45970;SDS011;31681;48.982;8.394;2023-05-07T13:28:36;4.22;;;2.70;;
45970;SDS011;31681;48.982;8.394;2023-05-07T13:31:02;4.03;;;3.05;;
45970;SDS011;31681;48.982;8.394;2023-05-07T13:33:28;4.03;;;2.50;;
45970;SDS011;31681;48.982;8.394;2023-05-07T13:35:53;2.33;;;2.03;;
45970;SDS011;31681;48.982;8.394;2023-05-07T13:38:19;5.50;;;2.35;;
45970;SDS011;31681;48.982;8.394;2023-05-07T13:40:47;2.20;;;2.00;;
45970;SDS011;31681;48.982;8.394;2023-05-07T13:43:12;5.60;;;2.58;;
45970;SDS011;31681;48.982;8.394;2023-05-07T13:45:38;2.47;;;2.13;;
45970;SDS011;31681;48.982;8.394;2023-05-07T13:48:03;3.53;;;3.20;;
45970;SDS011;31681;48.982;8.394;2023-05-07T13:50:29;3.17;;;2.70;;
45970;SDS011;31681;48.982;8.394;2023-05-07T13:52:55;5.13;;;3.00;;
45970;SDS011;31681;48.982;8.394;2023-05-07T13:55:21;4.05;;;2.53;;
45970;SDS011;31681;48.982;8.394;2023-05-07T13:57:47;4.22;;;2.78;;
45970;SDS011;31681;48.982;8.394;2023-05-07T14:00:13;3.08;;;2.63;;
45970;SDS011;31681;48.982;8.394;2023-05-07T14:02:42;6.20;;;3.20;;
45970;SDS011;31681;48.982;8.394;2023-05-07T14:05:07;5.93;;;3.05;;
45970;SDS011;31681;48.982;8.394;2023-05-07T14:07:34;4.80;;;3.30;;
45970;SDS011;31681;48.982;8.394;2023-05-07T14:09:59;5.38;;;4.07;;
45970;SDS011;31681;48.982;8.394;2023-05-07T14:12:25;5.00;;;4.00;;
45970;SDS011;31681;48.982;8.394;2023-05-07T14:14:50;7.03;;;3.70;;
45970;SDS011;31681;48.982;8.394;2023-05-07T14:17:16;4.22;;;3.17;;
45970;SDS011;31681;48.982;8.394;2023-05-07T14:19:42;4.32;;;3.05;;
45970;SDS011;31681;48.982;8.394;2023-05-07T14:22:07;2.95;;;2.63;;
45970;SDS011;31681;48.982;8.394;2023-05-07T14:24:33;2.50;;;1.63;;
45970;SDS011;31681;48.982;8.394;2023-05-07T14:27:01;1.98;;;1.48;;
45970;SDS011;31681;48.982;8.394;2023-05-07T14:29:26;2.70;;;1.35;;
45970;SDS011;31681;48.982;8.394;2023-05-07T14:31:55;1.98;;;1.50;;
45970;SDS011;31681;48.982;8.394;2023-05-07T14:34:20;1.98;;;1.40;;
45970;SDS011;31681;48.982;8.394;2023-05-07T14:36:45;2.67;;;1.50;;
45970;SDS011;31681;48.982;8.394;2023-05-07T14:39:11;2.70;;;1.48;;
45970;SDS011;31681;48.982;8.394;2023-05-07T14:41:36;1.40;;;0.90;;
45970;SDS011;31681;48.982;8.394;2023-05-07T14:44:02;2.25;;;1.13;;
45970;SDS011;31681;48.982;8.394;2023-05-07T14:46:29;3.40;;;1.50;;
45970;SDS011;31681;48.982;8.394;2023-05-07T14:48:54;2.28;;;1.20;;
45970;SDS011;31681;48.982;8.394;2023-05-07T14:51:22;2.03;;;1.08;;
45970;SDS011;31681;48.982;8.394;2023-05-07T14:53:49;1.30;;;0.98;;
45970;SDS011;31681;48.982;8.394;2023-05-07T14:56:15;1.30;;;1.20;;
45970;SDS011;31681;48.982;8.394;2023-05-07T14:58:40;1.50;;;1.25;;
45970;SDS011;31681;48.982;8.394;2023-05-07T15:01:06;3.28;;;1.20;;
45970;SDS011;31681;48.982;8.394;2023-05-07T15:03:33;2.38;;;1.48;;
45970;SDS011;31681;48.982;8.394;2023-05-07T15:05:59;1.60;;;1.40;;
45970;SDS011;31681;48.982;8.394;2023-05-07T15:08:25;2.22;;;1.60;;
45970;SDS011;31681;48.982;8.394;2023-05-07T15:10:51;3.92;;;1.67;;
45970;SDS011;31681;48.982;8.394;2023-05-07T15:13:16;1.98;;;1.10;;
45970;SDS011;31681;48.982;8.394;2023-05-07T15:15:42;2.40;;;1.20;;
45970;SDS011;31681;48.982;8.394;2023-05-07T15:18:08;1.27;;;1.17;;